Bookmark and Share
Track history (hours):
 

Mistral

Last reported at 2014-Apr-01 21:26 UTC. Time now 2014-Apr-20 21:06 UTC.
Position N 36°55' E 002°23'.
Warning: this ship's position is 18 days out of date.

Length 130 m; draft 7.1 m.

Type: Cargo ship. MMSI: 271000615.

NotesDate/timePositionNaut miles runAvg speedWind from/ knotsBaromVisibWave heightAir tempDewpointWater temp
2014-Apr-01 21:26N 36°55' E 002°23'3210.4
2014-Apr-01 18:21N 36°51' E 001°43'911.5
2014-Apr-01 17:33N 36°50' E 001°32'325 8.8
2014-Mar-31 04:30N 35°59' W 005°06'1010.1
2014-Mar-31 03:33N 35°56' W 005°17'2 2.3
2014-Mar-31 02:33N 35°54' W 005°19'0 0.0
2014-Mar-31 01:33N 35°54' W 005°19'0 0.0
2014-Mar-31 00:33N 35°54' W 005°19'0 0.3
2014-Mar-30 23:33N 35°54' W 005°19'6 5.5
2014-Mar-30 22:33N 35°57' W 005°24'  
2014-Mar-27 07:07N 43°53' W 005°31'5 7.4
2014-Mar-27 06:24N 43°52' W 005°23'106 5.3
2014-Mar-26 10:33N 43°22' W 003°04'0 0.0
2014-Mar-26 09:33N 43°22' W 003°04'0 0.0
2014-Mar-26 08:33N 43°22' W 003°04'0 0.0
2014-Mar-26 07:33N 43°22' W 003°04'0 0.0
2014-Mar-26 00:33N 43°22' W 003°04'0 0.0
2014-Mar-25 23:33N 43°22' W 003°04'0 0.0
2014-Mar-25 22:33N 43°22' W 003°04'0 0.0
2014-Mar-25 21:33N 43°22' W 003°04'0 0.0
2014-Mar-25 20:33N 43°22' W 003°04'0 0.0
2014-Mar-25 19:33N 43°22' W 003°04'0 0.0
2014-Mar-25 18:33N 43°22' W 003°04'0 0.0
2014-Mar-25 17:33N 43°22' W 003°04'0 0.0
2014-Mar-25 16:33N 43°22' W 003°04'0 0.0
2014-Mar-25 15:33N 43°22' W 003°04'0 0.0
2014-Mar-25 14:33N 43°22' W 003°04'0 0.0
2014-Mar-25 13:33N 43°22' W 003°04'0 0.0
2014-Mar-25 12:33N 43°22' W 003°04'0 0.0
2014-Mar-25 11:33N 43°22' W 003°04'0 0.0
2014-Mar-25 10:33N 43°22' W 003°04'0 0.0
2014-Mar-25 09:33N 43°22' W 003°04'0 0.0
2014-Mar-25 08:33N 43°22' W 003°04'0 0.0
2014-Mar-25 07:33N 43°22' W 003°04'0 0.0
2014-Mar-25 06:33N 43°22' W 003°04'0 0.0
2014-Mar-25 05:33N 43°22' W 003°04'0 0.0
2014-Mar-25 04:33N 43°22' W 003°04'0 0.0
2014-Mar-25 03:33N 43°22' W 003°04'0 0.0
2014-Mar-25 02:33N 43°22' W 003°04'0 0.0
2014-Mar-25 01:33N 43°22' W 003°04'0 0.0
2014-Mar-24 17:00N 43°22' W 003°04'5 0.1
2014-Mar-22 21:34N 43°26' W 003°08'  

Dump ship's entire track history

sailing weather and tide predictions

Mistral — TCCH — position and weather